createdAt,value
2018-12-05T00:00:38.703Z,102309.03
2018-12-05T00:01:42.988Z,102306.84
2018-12-05T00:02:47.041Z,102314.77
2018-12-05T00:03:51.181Z,102303.42
2018-12-05T00:04:55.435Z,102310.89
2018-12-05T00:05:59.618Z,102310.03
2018-12-05T00:07:03.793Z,102313.12
2018-12-05T00:08:08.638Z,102311.41
2018-12-05T00:09:12.750Z,102307.03
2018-12-05T00:10:16.880Z,102306.66
2018-12-05T00:11:21.067Z,102307.98
2018-12-05T00:12:25.287Z,102307.53
2018-12-05T00:13:29.511Z,102308.44
2018-12-05T00:14:33.739Z,102307.13
2018-12-05T00:15:37.902Z,102305.39
2018-12-05T00:16:41.945Z,102301.06
2018-12-05T00:17:46.064Z,102309.91
2018-12-05T00:18:50.099Z,102304.62
2018-12-05T00:19:54.204Z,102310.30
2018-12-05T00:20:58.246Z,102308.58
2018-12-05T00:22:02.314Z,102305.53
2018-12-05T00:23:06.351Z,102306.45
2018-12-05T00:24:10.367Z,102305.98
2018-12-05T00:25:14.467Z,102302.97
2018-12-05T00:26:24.956Z,102298.52
2018-12-05T00:27:29.088Z,102303.80
2018-12-05T00:28:33.183Z,102306.07
2018-12-05T00:29:37.352Z,102302.11
2018-12-05T00:30:41.617Z,102311.36
2018-12-05T00:31:46.346Z,102312.67
2018-12-05T00:32:50.462Z,102311.36
2018-12-05T00:33:54.606Z,102302.11
2018-12-05T00:34:58.727Z,102311.36
2018-12-05T00:36:02.760Z,102308.25
2018-12-05T00:37:06.788Z,102306.12
2018-12-05T00:38:10.947Z,102302.25
2018-12-05T00:39:15.182Z,102292.14
2018-12-05T00:40:19.315Z,102304.02
2018-12-05T00:41:23.319Z,102302.75
2018-12-05T00:42:27.374Z,102305.40
2018-12-05T00:43:31.419Z,102308.98
2018-12-05T00:44:35.450Z,102304.16
2018-12-05T00:45:39.490Z,102304.62
2018-12-05T00:46:43.539Z,102307.26
2018-12-05T00:47:47.586Z,102311.22
2018-12-05T00:48:51.708Z,102308.13
2018-12-05T00:49:55.746Z,102303.30
2018-12-05T00:50:59.939Z,102306.72
2018-12-05T00:52:04.186Z,102304.53
2018-12-05T00:53:08.316Z,102303.62
2018-12-05T00:54:12.441Z,102308.44
2018-12-05T00:55:16.555Z,102308.44
2018-12-05T00:57:26.439Z,102311.09
2018-12-05T00:58:30.603Z,102307.13
2018-12-05T00:59:34.748Z,102302.25
2018-12-05T01:00:38.833Z,102303.56
2018-12-05T01:01:42.881Z,102304.43
2018-12-05T01:02:47.069Z,102306.58
2018-12-05T01:03:51.206Z,102299.15
2018-12-05T01:04:55.219Z,102306.58
2018-12-05T01:05:59.258Z,102306.20
2018-12-05T01:07:03.496Z,102304.94
2018-12-05T01:08:07.768Z,102303.62
2018-12-05T01:09:12.891Z,102304.53
2018-12-05T01:10:17.172Z,102304.08
2018-12-05T01:11:21.402Z,102301.98
2018-12-05T01:12:25.614Z,102305.16
2018-12-05T01:13:29.685Z,102303.02
2018-12-05T01:14:33.766Z,102301.25
2018-12-05T01:15:37.877Z,102300.89
2018-12-05T01:16:41.967Z,102293.97
2018-12-05T01:17:46.071Z,102291.37
2018-12-05T01:18:50.113Z,102291.42
2018-12-05T01:19:54.303Z,102284.91
2018-12-05T01:20:58.311Z,102277.53
2018-12-05T01:22:02.393Z,102278.03
2018-12-05T01:23:06.544Z,102269.33
2018-12-05T01:24:10.589Z,102272.44
2018-12-05T01:25:14.681Z,102276.84
2018-12-05T01:26:18.723Z,102271.24
2018-12-05T01:27:22.888Z,102272.56
2018-12-05T01:28:27.134Z,102275.20
2018-12-05T01:29:31.229Z,102268.66
2018-12-05T01:32:20.343Z,102277.98
2018-12-05T01:33:24.438Z,102276.71
2018-12-05T01:34:28.558Z,102276.34
2018-12-05T01:35:33.040Z,102273.28
2018-12-05T01:36:37.094Z,102279.94
2018-12-05T01:37:41.358Z,102279.61
2018-12-05T01:38:45.396Z,102287.53
2018-12-05T01:39:49.398Z,102282.80
2018-12-05T01:40:53.494Z,102291.09
2018-12-05T01:41:57.506Z,102284.25
2018-12-05T01:43:01.525Z,102292.16
2018-12-05T01:44:05.647Z,102300.99
2018-12-05T01:45:09.907Z,102292.67
2018-12-05T01:46:14.079Z,102290.97
2018-12-05T01:47:18.084Z,102285.34
2018-12-05T01:48:22.091Z,102283.23
2018-12-05T01:49:26.349Z,102278.00
2018-12-05T01:50:30.398Z,102282.50
2018-12-05T01:51:34.511Z,102278.13
2018-12-05T01:52:38.505Z,102285.27
2018-12-05T01:53:42.705Z,102287.50
2018-12-05T01:54:46.840Z,102290.59
2018-12-05T01:55:50.910Z,102290.67
2018-12-05T01:56:54.976Z,102290.80
2018-12-05T01:57:58.989Z,102291.72
2018-12-05T01:59:03.196Z,102279.06
2018-12-05T02:00:07.636Z,102279.56
2018-12-05T02:01:11.828Z,102281.29
2018-12-05T02:02:16.047Z,102276.09
2018-12-05T02:03:20.126Z,102274.82
2018-12-05T02:04:24.122Z,102276.14
2018-12-05T02:05:28.284Z,102277.05
2018-12-05T02:06:32.464Z,102276.19
2018-12-05T02:07:36.607Z,102275.36
2018-12-05T02:08:40.666Z,102272.72
2018-12-05T02:09:47.051Z,102270.53
2018-12-05T02:10:51.153Z,102265.30
2018-12-05T02:11:55.511Z,102263.98
2018-12-05T02:12:59.594Z,102270.20
2018-12-05T02:14:04.772Z,102274.16
2018-12-05T02:15:08.963Z,102272.84
2018-12-05T02:16:13.061Z,102273.22
2018-12-05T02:17:17.192Z,102278.00
2018-12-05T02:18:21.209Z,102274.95
2018-12-05T02:19:25.694Z,102275.81
2018-12-05T02:20:29.854Z,102273.22
2018-12-05T02:21:34.069Z,102273.22
2018-12-05T02:22:38.156Z,102275.48
2018-12-05T02:23:42.233Z,102280.77
2018-12-05T02:24:46.401Z,102279.94
2018-12-05T02:25:50.555Z,102280.81
2018-12-05T02:26:54.805Z,102281.27
2018-12-05T02:27:58.883Z,102287.45
2018-12-05T02:29:03.022Z,102287.45
2018-12-05T02:30:07.484Z,102282.66
2018-12-05T02:31:11.680Z,102281.39
2018-12-05T02:32:15.742Z,102283.16
2018-12-05T02:33:19.864Z,102282.70
2018-12-05T02:34:24.052Z,102277.52
2018-12-05T02:35:28.081Z,102275.70
2018-12-05T02:36:32.212Z,102273.56
2018-12-05T02:37:36.263Z,102276.20
2018-12-05T02:38:41.561Z,102272.28
2018-12-05T02:39:45.596Z,102269.23
2018-12-05T02:40:49.698Z,102269.69
2018-12-05T02:41:55.883Z,102278.55
2018-12-05T02:42:59.955Z,102273.73
2018-12-05T02:44:04.271Z,102276.91
2018-12-05T02:45:08.489Z,102273.86
2018-12-05T02:46:12.492Z,102276.09
2018-12-05T02:47:16.535Z,102275.22
2018-12-05T02:48:20.534Z,102271.34
2018-12-05T02:49:24.742Z,102275.34
2018-12-05T02:50:28.836Z,102271.47
2018-12-05T02:51:33.008Z,102265.78
2018-12-05T02:52:37.011Z,102269.28
2018-12-05T02:53:41.016Z,102265.78
2018-12-05T02:54:45.103Z,102270.61
2018-12-05T02:55:49.305Z,102271.11
2018-12-05T02:56:53.416Z,102265.00
2018-12-05T02:57:57.569Z,102267.23
2018-12-05T02:59:01.790Z,102271.19
2018-12-05T03:00:06.815Z,102267.27
2018-12-05T03:01:11.050Z,102262.08
2018-12-05T03:02:15.146Z,102265.62
2018-12-05T03:03:19.145Z,102266.95
2018-12-05T03:04:23.423Z,102264.84
2018-12-05T03:05:27.573Z,102260.48
2018-12-05T03:06:31.583Z,102260.06
2018-12-05T03:07:35.755Z,102261.88
2018-12-05T03:08:39.735Z,102259.28
2018-12-05T03:09:43.980Z,102254.92
2018-12-05T03:10:47.985Z,102254.47
2018-12-05T03:11:52.263Z,102255.00
2018-12-05T03:12:56.474Z,102251.09
2018-12-05T03:14:00.558Z,102244.95
2018-12-05T03:15:05.644Z,102249.84
2018-12-05T03:16:09.844Z,102244.16
2018-12-05T03:18:29.079Z,102247.79
2018-12-05T03:19:33.115Z,102244.29
2018-12-05T03:20:37.203Z,102250.92
2018-12-05T03:21:41.897Z,102244.82
2018-12-05T03:22:45.937Z,102245.73
2018-12-05T03:23:50.023Z,102247.50
2018-12-05T03:24:54.337Z,102247.50
2018-12-05T03:25:58.404Z,102246.64
2018-12-05T03:27:02.459Z,102251.45
2018-12-05T03:28:06.587Z,102253.69
2018-12-05T03:29:10.667Z,102248.03
2018-12-05T03:30:14.867Z,102248.41
2018-12-05T03:31:19.012Z,102250.26
2018-12-05T03:32:23.176Z,102251.17
2018-12-05T03:33:27.392Z,102242.89
2018-12-05T03:34:31.531Z,102241.16
2018-12-05T03:35:38.769Z,102241.16
2018-12-05T03:36:42.969Z,102241.20
2018-12-05T03:37:47.084Z,102237.70
2018-12-05T03:38:51.255Z,102238.11
2018-12-05T03:39:55.333Z,102238.64
2018-12-05T03:40:59.544Z,102234.73
2018-12-05T03:42:03.787Z,102231.23
2018-12-05T03:43:07.844Z,102230.45
2018-12-05T03:44:11.882Z,102227.36
2018-12-05T03:45:16.715Z,102234.41
2018-12-05T03:46:20.797Z,102233.09
2018-12-05T03:47:24.915Z,102233.62
2018-12-05T03:48:28.974Z,102230.57
2018-12-05T03:49:33.119Z,102227.53
2018-12-05T03:50:37.203Z,102230.57
2018-12-05T03:51:41.329Z,102235.43
2018-12-05T03:52:45.510Z,102234.11
2018-12-05T03:53:49.687Z,102229.78
2018-12-05T03:54:53.736Z,102235.51
2018-12-05T03:55:57.881Z,102230.69
2018-12-05T03:57:02.067Z,102227.64
2018-12-05T03:58:06.339Z,102238.19
2018-12-05T03:59:10.553Z,102238.72
2018-12-05T04:00:14.624Z,102237.86
2018-12-05T04:01:18.692Z,102236.99
2018-12-05T04:02:22.752Z,102237.90
2018-12-05T04:03:26.846Z,102237.52
2018-12-05T04:04:30.906Z,102245.88
2018-12-05T04:05:35.059Z,102239.34
2018-12-05T04:06:39.265Z,102241.14
2018-12-05T04:07:43.367Z,102242.50
2018-12-05T04:08:47.451Z,102240.73
2018-12-05T04:09:51.707Z,102229.86
2018-12-05T04:10:55.787Z,102232.08
2018-12-05T04:11:59.998Z,102236.48
2018-12-05T04:13:04.215Z,102235.25
2018-12-05T04:14:08.924Z,102232.12
2018-12-05T04:15:13.106Z,102237.39
2018-12-05T04:16:17.089Z,102233.11
2018-12-05T04:17:21.575Z,102229.16
2018-12-05T04:18:25.625Z,102227.43
2018-12-05T04:19:29.906Z,102237.14
2018-12-05T04:20:34.143Z,102238.50
2018-12-05T04:21:38.188Z,102236.77
2018-12-05T04:22:42.211Z,102234.62
2018-12-05T04:23:46.370Z,102239.89
2018-12-05T04:24:50.510Z,102237.30
2018-12-05T04:25:54.691Z,102240.84
2018-12-05T04:26:58.718Z,102244.79
2018-12-05T04:28:02.856Z,102251.38
2018-12-05T04:29:06.936Z,102247.42
2018-12-05T04:30:11.086Z,102251.78
2018-12-05T04:31:15.177Z,102248.73
2018-12-05T04:32:19.248Z,102245.66
2018-12-05T04:33:23.302Z,102246.11
2018-12-05T04:34:27.404Z,102243.88
2018-12-05T04:35:31.411Z,102246.06
2018-12-05T04:36:35.467Z,102241.66
2018-12-05T04:37:39.654Z,102242.97
2018-12-05T04:38:43.683Z,102247.30
2018-12-05T04:39:47.767Z,102239.52
2018-12-05T04:40:51.880Z,102242.16
2018-12-05T04:41:56.036Z,102243.47
2018-12-05T04:43:00.032Z,102241.25
2018-12-05T04:44:04.204Z,102239.52
2018-12-05T04:45:08.406Z,102243.88
2018-12-05T04:46:12.545Z,102246.52
2018-12-05T04:47:16.589Z,102242.97
2018-12-05T04:48:20.702Z,102244.67
2018-12-05T04:49:24.897Z,102249.03
2018-12-05T04:50:28.957Z,102238.95
2018-12-05T04:51:33.301Z,102237.63
2018-12-05T04:52:37.315Z,102242.90
2018-12-05T04:53:41.382Z,102244.22
2018-12-05T04:54:45.554Z,102241.09
2018-12-05T04:55:49.699Z,102241.92
2018-12-05T04:56:53.883Z,102241.42
2018-12-05T04:57:57.972Z,102243.15
2018-12-05T04:59:02.014Z,102237.39
2018-12-05T05:00:07.284Z,102238.67
2018-12-05T05:01:11.563Z,102236.44
2018-12-05T05:02:15.857Z,102236.82
2018-12-05T05:03:20.012Z,102240.66
2018-12-05T05:04:24.147Z,102234.55
2018-12-05T05:05:28.191Z,102244.11
2018-12-05T05:06:32.247Z,102238.31
2018-12-05T05:07:36.299Z,102245.69
2018-12-05T05:08:40.469Z,102236.41
2018-12-05T05:09:44.969Z,102237.16
2018-12-05T05:10:49.150Z,102232.67
2018-12-05T05:11:53.200Z,102225.18
2018-12-05T05:12:57.662Z,102217.27
2018-12-05T05:14:01.766Z,102221.52
2018-12-05T05:15:06.056Z,102219.33
2018-12-05T05:16:10.254Z,102216.23
2018-12-05T05:17:14.379Z,102222.30
2018-12-05T05:18:18.552Z,102222.75
2018-12-05T05:19:22.738Z,102216.16
2018-12-05T05:20:26.862Z,102221.39
2018-12-05T05:21:30.903Z,102218.75
2018-12-05T05:22:34.993Z,102224.81
2018-12-05T05:23:40.412Z,102223.91
2018-12-05T05:24:44.579Z,102222.58
2018-12-05T05:25:48.619Z,102226.95
2018-12-05T05:26:52.679Z,102224.31
2018-12-05T05:27:56.857Z,102223.37
2018-12-05T05:29:00.997Z,102223.37
2018-12-05T05:30:05.793Z,102226.41
2018-12-05T05:31:10.066Z,102220.23
2018-12-05T05:32:14.109Z,102222.45
2018-12-05T05:33:18.185Z,102216.28
2018-12-05T05:34:22.233Z,102217.59
2018-12-05T05:35:26.310Z,102210.06
2018-12-05T05:36:30.367Z,102212.70
2018-12-05T05:37:34.470Z,102207.42
2018-12-05T05:38:38.481Z,102211.38
2018-12-05T05:39:42.560Z,102207.42
2018-12-05T05:40:46.831Z,102209.61
2018-12-05T05:41:51.259Z,102206.92
2018-12-05T05:42:55.314Z,102205.98
2018-12-05T05:43:59.418Z,102206.92
2018-12-05T05:45:03.609Z,102204.16
2018-12-05T05:46:07.719Z,102198.89
2018-12-05T05:47:11.784Z,102199.30
2018-12-05T05:48:16.000Z,102200.13
2018-12-05T05:49:20.107Z,102194.03
2018-12-05T05:50:24.196Z,102196.66
2018-12-05T05:51:28.294Z,102196.66
2018-12-05T05:52:32.398Z,102197.49
2018-12-05T05:53:36.467Z,102198.36
2018-12-05T05:54:40.578Z,102197.49
2018-12-05T05:55:44.755Z,102202.31
2018-12-05T05:56:48.774Z,102200.62
2018-12-05T05:57:52.866Z,102203.63
2018-12-05T05:58:56.957Z,102206.67
2018-12-05T06:00:00.980Z,102203.58
2018-12-05T06:01:05.343Z,102204.04
2018-12-05T06:02:09.467Z,102201.41
2018-12-05T06:03:13.555Z,102204.82
2018-12-05T06:04:17.686Z,102206.09
2018-12-05T06:05:21.727Z,102210.50
2018-12-05T06:06:26.085Z,102209.19
2018-12-05T06:07:30.151Z,102207.45
2018-12-05T06:08:34.247Z,102215.78
2018-12-05T06:09:38.370Z,102211.41
2018-12-05T06:10:42.436Z,102204.82
2018-12-05T06:11:46.626Z,102210.50
2018-12-05T06:12:50.717Z,102203.91
2018-12-05T06:13:54.897Z,102204.32
2018-12-05T06:14:59.063Z,102206.02
2018-12-05T06:16:03.280Z,102203.78
2018-12-05T06:17:07.451Z,102202.47
2018-12-05T06:18:11.609Z,102196.66
2018-12-05T06:19:15.752Z,102206.30
2018-12-05T06:20:19.912Z,102206.25
2018-12-05T06:21:24.058Z,102203.61
2018-12-05T06:22:28.103Z,102202.75
2018-12-05T06:23:32.215Z,102196.66
2018-12-05T06:24:36.515Z,102203.66
2018-12-05T06:25:40.658Z,102200.61
2018-12-05T06:26:44.695Z,102203.25
2018-12-05T06:27:48.818Z,102206.75
2018-12-05T06:28:52.920Z,102206.70
2018-12-05T06:29:57.025Z,102208.80
2018-12-05T06:31:01.267Z,102207.94
2018-12-05T06:32:05.505Z,102210.08
2018-12-05T06:33:09.636Z,102209.08
2018-12-05T06:34:13.881Z,102208.17
2018-12-05T06:35:17.995Z,102210.36
2018-12-05T06:36:22.263Z,102209.36
2018-12-05T06:37:26.315Z,102202.36
2018-12-05T06:38:30.386Z,102212.91
2018-12-05T06:39:34.454Z,102209.36
2018-12-05T06:40:38.569Z,102213.70
2018-12-05T06:41:42.765Z,102212.00
2018-12-05T06:42:46.944Z,102212.38
2018-12-05T06:43:51.016Z,102207.59
2018-12-05T06:44:55.087Z,102208.42
2018-12-05T06:45:59.151Z,102204.95
2018-12-05T06:47:03.319Z,102210.60
2018-12-05T06:48:07.456Z,102216.28
2018-12-05T06:49:11.873Z,102206.52
2018-12-05T06:50:16.000Z,102208.70
2018-12-05T06:51:20.079Z,102205.61
2018-12-05T06:52:24.301Z,102203.83
2018-12-05T06:53:28.528Z,102199.42
2018-12-05T06:54:32.656Z,102200.73
2018-12-05T06:55:39.293Z,102203.37
2018-12-05T06:56:42.910Z,102209.52
2018-12-05T06:57:47.086Z,102214.30
2018-12-05T06:58:51.215Z,102209.02
2018-12-05T06:59:55.393Z,102210.83
2018-12-05T07:00:59.666Z,102213.47
2018-12-05T07:02:03.830Z,102212.52
2018-12-05T07:03:07.883Z,102216.48
2018-12-05T07:04:11.987Z,102219.13
2018-12-05T07:05:16.143Z,102226.58
2018-12-05T07:06:20.271Z,102219.98
2018-12-05T07:07:24.348Z,102217.80
2018-12-05T07:08:28.590Z,102225.72
2018-12-05T07:09:33.539Z,102227.89
2018-12-05T07:10:37.721Z,102224.84
2018-12-05T07:11:42.066Z,102228.35
2018-12-05T07:12:46.176Z,102228.35
2018-12-05T07:13:50.340Z,102230.98
2018-12-05T07:14:54.640Z,102230.13
2018-12-05T07:15:59.035Z,102220.97
2018-12-05T07:17:03.261Z,102221.89
2018-12-05T07:18:07.388Z,102221.52
2018-12-05T07:19:11.467Z,102219.78
2018-12-05T07:20:15.704Z,102220.24
2018-12-05T07:21:20.017Z,102222.09
2018-12-05T07:22:24.159Z,102219.50
2018-12-05T07:23:28.253Z,102220.41
2018-12-05T07:24:32.423Z,102224.00
2018-12-05T07:25:36.667Z,102216.22
2018-12-05T07:26:40.821Z,102214.48
2018-12-05T07:27:45.049Z,102222.06
2018-12-05T07:28:49.531Z,102216.80
2018-12-05T07:29:53.761Z,102214.61
2018-12-05T07:30:57.824Z,102208.06
2018-12-05T07:32:01.942Z,102210.20
2018-12-05T07:33:06.373Z,102202.21
2018-12-05T07:34:10.521Z,102205.25
2018-12-05T07:35:14.602Z,102203.86
2018-12-05T07:36:18.720Z,102205.98
2018-12-05T07:37:22.854Z,102203.27
2018-12-05T07:38:27.046Z,102212.45
2018-12-05T07:39:31.065Z,102216.73
2018-12-05T07:40:35.276Z,102219.38
2018-12-05T07:41:39.493Z,102213.19
2018-12-05T07:42:43.616Z,102213.59
2018-12-05T07:43:47.884Z,102211.74
2018-12-05T07:44:51.979Z,102216.94
2018-12-05T07:45:56.414Z,102215.57
2018-12-05T07:47:00.631Z,102210.30
2018-12-05T07:48:04.741Z,102206.34
2018-12-05T07:49:08.879Z,102205.88
2018-12-05T07:50:13.040Z,102205.02
2018-12-05T07:51:17.183Z,102207.70
2018-12-05T07:52:21.347Z,102202.05
2018-12-05T07:53:25.472Z,102198.55
2018-12-05T07:54:29.574Z,102198.55
2018-12-05T07:55:33.608Z,102186.28
2018-12-05T07:56:37.753Z,102192.41
2018-12-05T07:57:41.862Z,102188.46
2018-12-05T07:58:46.043Z,102193.28
2018-12-05T07:59:50.232Z,102193.69
2018-12-05T08:00:54.496Z,102188.78
2018-12-05T08:01:58.766Z,102190.97
2018-12-05T08:03:02.863Z,102186.96
2018-12-05T08:04:07.039Z,102186.83
2018-12-05T08:05:11.323Z,102185.88
2018-12-05T08:06:15.411Z,102184.52
2018-12-05T08:07:20.264Z,102178.25
2018-12-05T08:08:24.330Z,102179.11
2018-12-05T08:09:28.885Z,102175.10
2018-12-05T08:10:33.023Z,102171.92
2018-12-05T08:11:37.191Z,102165.33
2018-12-05T08:12:41.346Z,102163.09
2018-12-05T08:13:45.324Z,102164.79
2018-12-05T08:14:49.415Z,102165.20
2018-12-05T08:15:53.572Z,102161.69
2018-12-05T08:16:57.826Z,102162.50
2018-12-05T08:18:01.908Z,102163.28
2018-12-05T08:19:06.104Z,102165.47
2018-12-05T08:20:10.335Z,102165.87
2018-12-05T08:21:14.577Z,102164.92
2018-12-05T08:22:18.639Z,102158.73
2018-12-05T08:23:22.698Z,102157.33
2018-12-05T08:24:26.755Z,102159.52
2018-12-05T08:25:30.988Z,102158.59
2018-12-05T08:26:35.188Z,102162.42
2018-12-05T08:27:39.441Z,102156.60
2018-12-05T08:28:43.605Z,102158.73
2018-12-05T08:29:47.723Z,102159.97
2018-12-05T08:30:51.824Z,102159.00
2018-12-05T08:31:55.886Z,102158.45
2018-12-05T08:32:59.944Z,102160.19
2018-12-05T08:34:04.069Z,102157.91
2018-12-05T08:35:08.757Z,102152.13
2018-12-05T08:36:12.884Z,102145.90
2018-12-05T08:37:16.987Z,102148.03
2018-12-05T08:38:21.099Z,102144.44
2018-12-05T08:39:25.192Z,102147.48
2018-12-05T08:40:29.202Z,102139.56
2018-12-05T08:41:33.469Z,102136.02
2018-12-05T08:42:37.538Z,102139.05
2018-12-05T08:43:41.621Z,102152.17
2018-12-05T08:44:46.098Z,102141.61
2018-12-05T08:45:50.070Z,102140.75
2018-12-05T08:46:54.231Z,102144.20
2018-12-05T08:47:58.359Z,102145.52
2018-12-05T08:49:02.527Z,102152.03
2018-12-05T08:50:06.971Z,102144.97
2018-12-05T08:51:11.036Z,102145.37
2018-12-05T08:52:15.102Z,102143.97
2018-12-05T08:53:19.305Z,102146.93
2018-12-05T08:54:23.420Z,102148.65
2018-12-05T08:55:27.599Z,102142.45
2018-12-05T08:56:31.690Z,102136.72
2018-12-05T08:57:35.913Z,102134.94
2018-12-05T08:58:40.130Z,102134.45
2018-12-05T08:59:44.158Z,102137.95
2018-12-05T09:00:48.300Z,102134.39
2018-12-05T09:01:52.293Z,102129.11
2018-12-05T09:02:56.377Z,102129.52
2018-12-05T09:04:00.382Z,102124.14
2018-12-05T09:05:04.779Z,102123.62
2018-12-05T09:06:08.854Z,102127.10
2018-12-05T09:07:12.895Z,102126.59
2018-12-05T09:08:17.124Z,102127.45
2018-12-05T09:09:21.299Z,102126.13
2018-12-05T09:10:25.321Z,102129.17
2018-12-05T09:11:29.534Z,102128.20
2018-12-05T09:12:33.659Z,102124.61
2018-12-05T09:13:37.779Z,102122.83
2018-12-05T09:14:42.042Z,102133.34
2018-12-05T09:15:47.620Z,102132.02
2018-12-05T09:16:51.757Z,102132.80
2018-12-05T09:17:55.939Z,102133.20
2018-12-05T09:18:59.969Z,102126.59
2018-12-05T09:20:04.732Z,102118.58
2018-12-05T09:21:08.703Z,102118.53
2018-12-05T09:22:12.962Z,102118.06
2018-12-05T09:23:17.527Z,102117.98
2018-12-05T09:24:21.681Z,102111.37
2018-12-05T09:25:25.881Z,102113.55
2018-12-05T09:26:30.336Z,102108.73
2018-12-05T09:27:34.366Z,102112.64
2018-12-05T09:28:38.514Z,102113.95
2018-12-05T09:29:43.225Z,102111.69
2018-12-05T09:30:48.123Z,102108.22
2018-12-05T09:31:53.463Z,102111.23
2018-12-05T09:32:57.499Z,102118.14
2018-12-05T09:34:01.616Z,102120.33
2018-12-05T09:35:06.538Z,102118.55
2018-12-05T09:36:10.865Z,102117.63
2018-12-05T09:37:15.076Z,102110.56
2018-12-05T09:38:19.119Z,102103.50
2018-12-05T09:39:23.249Z,102107.83
2018-12-05T09:40:27.211Z,102102.86
2018-12-05T09:41:31.297Z,102097.98
2018-12-05T09:42:35.416Z,102101.42
2018-12-05T09:43:39.408Z,102102.66
2018-12-05T09:44:43.504Z,102093.41
2018-12-05T09:45:49.019Z,102094.73
2018-12-05T09:46:53.111Z,102089.75
2018-12-05T09:47:58.971Z,102095.04
2018-12-05T09:49:03.086Z,102093.20
2018-12-05T09:50:07.335Z,102082.08
2018-12-05T09:51:11.495Z,102087.77
2018-12-05T09:52:15.542Z,102088.53
2018-12-05T09:53:19.659Z,102089.30
2018-12-05T09:54:23.733Z,102084.83
2018-12-05T09:55:27.787Z,102085.13
2018-12-05T09:56:31.804Z,102086.39
2018-12-05T09:57:36.021Z,102086.77
2018-12-05T09:58:40.027Z,102085.29
2018-12-05T09:59:44.039Z,102084.37
2018-12-05T10:00:48.100Z,102083.81
2018-12-05T10:01:52.348Z,102088.18
2018-12-05T10:02:56.362Z,102094.79
2018-12-05T10:04:00.370Z,102096.11
2018-12-05T10:05:05.347Z,102094.79
2018-12-05T10:06:09.347Z,102092.14
2018-12-05T10:07:13.479Z,102085.08
2018-12-05T10:08:17.880Z,102080.66
2018-12-05T10:09:21.923Z,102087.66
2018-12-05T10:10:25.990Z,102081.82
2018-12-05T10:11:30.113Z,102080.96
2018-12-05T10:12:41.051Z,102082.22
2018-12-05T10:13:45.164Z,102086.95
2018-12-05T10:14:49.237Z,102082.06
2018-12-05T10:15:53.235Z,102076.78
2018-12-05T10:16:57.279Z,102073.58
2018-12-05T10:18:01.724Z,102078.31
2018-12-05T10:19:05.905Z,102076.99
2018-12-05T10:20:10.106Z,102081.36
2018-12-05T10:21:14.226Z,102082.52
2018-12-05T10:22:18.340Z,102079.42
2018-12-05T10:23:22.494Z,102076.72
2018-12-05T10:24:26.500Z,102065.59
2018-12-05T10:25:30.527Z,102072.59
2018-12-05T10:26:34.560Z,102067.83
2018-12-05T10:27:38.763Z,102064.82
2018-12-05T10:28:42.804Z,102063.86
2018-12-05T10:29:46.840Z,102065.59
2018-12-05T10:30:51.107Z,102066.35
2018-12-05T10:31:55.165Z,102057.95
2018-12-05T10:33:00.240Z,102052.14
2018-12-05T10:34:04.428Z,102058.20
2018-12-05T10:35:08.565Z,102052.84
2018-12-05T10:36:12.756Z,102049.25
2018-12-05T10:37:16.972Z,102035.10
2018-12-05T10:38:21.025Z,102033.78
2018-12-05T10:39:25.247Z,102026.25
2018-12-05T10:40:29.382Z,102030.12
2018-12-05T10:41:33.412Z,102026.09
2018-12-05T10:42:37.504Z,102026.09
2018-12-05T10:43:41.563Z,102023.74
2018-12-05T10:44:45.679Z,102016.67
2018-12-05T10:45:49.819Z,102015.71
2018-12-05T10:46:54.007Z,102016.11
2018-12-05T10:47:58.082Z,102024.34
2018-12-05T10:49:02.338Z,102023.88
2018-12-05T10:50:07.503Z,102022.50
2018-12-05T10:51:11.543Z,102013.54
2018-12-05T10:52:15.591Z,102010.33
2018-12-05T10:53:19.752Z,102001.88
2018-12-05T10:54:24.123Z,101999.13
2018-12-05T10:55:28.303Z,101990.73
2018-12-05T10:56:32.525Z,101995.16
2018-12-05T10:57:36.741Z,101991.59
2018-12-05T10:58:40.783Z,101996.81
2018-12-05T10:59:44.956Z,101992.34
2018-12-05T11:00:54.806Z,101999.83
2018-12-05T11:02:04.364Z,101995.48
2018-12-05T11:03:17.483Z,101999.92
2018-12-05T11:04:27.170Z,102004.35
2018-12-05T11:05:36.590Z,102005.67
2018-12-05T11:06:46.054Z,102014.47
2018-12-05T11:07:56.223Z,102004.75
2018-12-05T11:09:05.884Z,101998.50
2018-12-05T11:10:15.358Z,101994.93
2018-12-05T11:11:24.873Z,101990.03
2018-12-05T11:12:34.487Z,101986.43
2018-12-05T11:13:43.992Z,101981.14
2018-12-05T11:14:53.482Z,101979.45
2018-12-05T11:17:02.895Z,101975.48
2018-12-05T11:18:12.731Z,101977.27
2018-12-05T11:19:22.254Z,101975.09
2018-12-05T11:20:31.619Z,101969.40
2018-12-05T11:21:41.019Z,101971.12
2018-12-05T11:23:53.393Z,101970.19
2018-12-05T11:25:07.238Z,101962.25
2018-12-05T11:26:14.327Z,101964.04
2018-12-05T11:27:18.331Z,101958.75
2018-12-05T11:28:22.524Z,101959.67
2018-12-05T11:29:26.741Z,101960.44
2018-12-05T11:30:30.712Z,101962.09
2018-12-05T11:31:35.026Z,101952.03
2018-12-05T11:32:39.082Z,101959.73
2018-12-05T11:33:43.243Z,101954.34
2018-12-05T11:34:47.299Z,101948.98
2018-12-05T11:35:51.310Z,101949.39
2018-12-05T11:36:55.352Z,101947.03
2018-12-05T11:37:59.480Z,101942.03
2018-12-05T11:39:05.754Z,101944.98
2018-12-05T11:40:10.014Z,101937.03
2018-12-05T11:41:14.302Z,101939.62
2018-12-05T11:42:18.486Z,101933.00
2018-12-05T11:43:22.583Z,101933.69
2018-12-05T11:44:26.622Z,101926.11
2018-12-05T11:45:30.759Z,101928.30
2018-12-05T11:46:34.769Z,101923.39
2018-12-05T11:47:38.877Z,101920.68
2018-12-05T11:48:43.043Z,101924.55
2018-12-05T11:49:47.430Z,101914.36
2018-12-05T11:50:51.495Z,101922.59
2018-12-05T11:51:55.539Z,101918.69
2018-12-05T11:52:59.690Z,101922.59
2018-12-05T11:54:03.720Z,101919.88
2018-12-05T11:55:08.001Z,101920.70
2018-12-05T11:56:12.027Z,101922.42
2018-12-05T11:57:16.112Z,101919.77
2018-12-05T11:58:20.226Z,101919.77
2018-12-05T11:59:24.585Z,101914.48
2018-12-05T12:00:28.764Z,101918.84
2018-12-05T12:01:32.967Z,101916.55
2018-12-05T12:02:37.072Z,101918.84
2018-12-05T12:03:41.238Z,101916.09
2018-12-05T12:04:45.303Z,101915.23
2018-12-05T12:05:49.555Z,101912.05
2018-12-05T12:06:53.700Z,101912.91
2018-12-05T12:07:57.640Z,101911.59
2018-12-05T12:09:01.778Z,101905.04
2018-12-05T12:10:06.100Z,101910.73
2018-12-05T12:11:10.244Z,101900.53
2018-12-05T12:12:20.130Z,101904.33
2018-12-05T12:13:24.231Z,101910.38
2018-12-05T12:14:28.450Z,101908.48
2018-12-05T12:15:32.720Z,101904.05
2018-12-05T12:16:36.843Z,101906.62
2018-12-05T12:17:41.903Z,101900.38
2018-12-05T12:18:46.718Z,101902.48
2018-12-05T12:19:50.859Z,101907.20
2018-12-05T12:20:55.018Z,101910.72